Heer, Netherlands
Current Conditions -  °F | °C
As of 1:25 AM on Tuesday 25 Nov 2014 (Local Time) from EHBK Reporting Station
Clear Clear  
Wind Chill: 34°   Ceiling: Unl
Heat Index: 37°   Visibility: 6mi
Dew Point: 36°   Wind: 5mph
Humidity: 93%   Direction: 100°E
Pressure: 30.3"   Gusts: NA
Location:  50.84°N, 5.73°E
Report Text: EHBK 250025Z AUTO 10004KT 9999 NCD 03/02 Q1026
Loading
Personal Weather Stations






























Interactive Weather Map New forecast layout! Learn more

10-Day Weather Forecast

Advertisements
Track Severe Weather on mobile